Time;durP1;ratioP1;P1;durP2;ratioP2;P2;SDS_P1;SDS_P2;PMS_P1;PMS_P2;Temp;Humidity;BMP_temperature;BMP_pressure;BME280_temperature;BME280_humidity;BME280_pressure;Samples;Min_cycle;Max_cycle;Signal;HPM_P1;HPM_P2
2021/08/11 00:00:23;;;;;;;6.25;2.83;;;;;;;20.01;65.12;100044.56;2197182;40;20047;-77
2021/08/11 00:01:56;;;;;;;5.32;2.75;;;;;;;20.02;64.74;100056.22;2199133;40;20036;-77
2021/08/11 00:03:28;;;;;;;5.30;3.10;;;;;;;20.01;64.80;100052.69;2200497;40;20035;-77
2021/08/11 00:05:00;;;;;;;9.50;3.67;;;;;;;20.00;64.58;100051.03;2201865;40;20042;-78
2021/08/11 00:06:31;;;;;;;6.95;3.33;;;;;;;19.99;64.68;100051.22;2196281;40;20035;-77
2021/08/11 00:08:04;;;;;;;7.55;3.40;;;;;;;19.99;64.63;100052.06;2192759;40;20506;-77
2021/08/11 00:09:36;;;;;;;6.28;2.90;;;;;;;19.95;64.42;100057.06;2196936;40;20382;-77
2021/08/11 00:11:07;;;;;;;6.53;3.10;;;;;;;19.93;64.82;100061.03;2196470;40;20041;-78
2021/08/11 00:12:39;;;;;;;7.38;3.10;;;;;;;19.90;64.84;100054.13;2190641;40;20038;-78
2021/08/11 00:14:12;;;;;;;5.88;3.28;;;;;;;19.91;64.99;100052.25;2196117;40;20034;-76
2021/08/11 00:15:45;;;;;;;5.65;3.30;;;;;;;19.90;64.65;100045.16;2197068;40;20402;-77
2021/08/11 00:17:20;;;;;;;7.30;3.95;;;;;;;19.90;64.63;100058.72;2198102;40;20037;-78
2021/08/11 00:18:52;;;;;;;8.07;3.95;;;;;;;19.87;64.75;100059.13;2251621;23;20066;-79
2021/08/11 00:20:24;;;;;;;5.70;3.35;;;;;;;19.87;64.56;100064.53;2195549;40;20776;-79
2021/08/11 00:21:56;;;;;;;6.32;3.40;;;;;;;19.82;64.89;100062.44;2197755;40;20050;-79
2021/08/11 00:23:28;;;;;;;6.70;3.47;;;;;;;19.79;65.10;100060.09;2195863;40;20330;-79
2021/08/11 00:25:00;;;;;;;6.10;3.30;;;;;;;19.75;65.07;100056.97;2196375;40;20085;-78
2021/08/11 00:26:32;;;;;;;7.72;3.28;;;;;;;19.72;65.02;100062.84;2201447;40;20069;-80
2021/08/11 00:28:04;;;;;;;6.30;3.30;;;;;;;19.71;65.39;100058.44;2191835;40;20032;-80
2021/08/11 00:29:37;;;;;;;7.53;3.28;;;;;;;19.66;65.50;100051.97;2190938;40;20042;-79
2021/08/11 00:31:09;;;;;;;5.45;3.20;;;;;;;19.59;65.72;100062.78;2194346;40;20065;-79
2021/08/11 00:32:41;;;;;;;8.75;3.58;;;;;;;19.55;65.93;100056.09;2194461;40;20042;-79
2021/08/11 00:34:12;;;;;;;5.93;3.47;;;;;;;19.50;65.93;100054.00;2201248;40;20433;-79
2021/08/11 00:35:44;;;;;;;5.53;3.00;;;;;;;19.45;66.23;100056.47;2197235;40;20027;-79
2021/08/11 00:37:16;;;;;;;5.43;3.67;;;;;;;19.42;66.41;100057.72;2198201;40;20046;-79
2021/08/11 00:38:48;;;;;;;7.75;3.40;;;;;;;19.41;66.60;100066.06;2202919;40;20342;-81
2021/08/11 00:40:23;;;;;;;7.70;3.42;;;;;;;19.40;66.70;100064.41;2196104;40;20042;-79
2021/08/11 00:41:55;;;;;;;8.27;3.10;;;;;;;19.38;66.59;100063.75;2201161;40;20038;-79
2021/08/11 00:43:27;;;;;;;5.45;2.47;;;;;;;19.39;67.01;100060.84;2201686;40;20391;-79
2021/08/11 00:45:03;;;;;;;8.13;3.20;;;;;;;19.40;66.78;100065.22;2197656;40;20045;-79
2021/08/11 00:46:34;;;;;;;5.65;2.80;;;;;;;19.36;66.76;100074.81;2190835;40;20036;-80
2021/08/11 00:48:08;;;;;;;6.75;3.10;;;;;;;19.32;67.20;100081.66;2190514;40;20466;-80
2021/08/11 00:49:42;;;;;;;6.00;2.92;;;;;;;19.26;67.24;100074.34;2193597;40;20031;-80
2021/08/11 00:51:14;;;;;;;6.28;3.00;;;;;;;19.22;67.61;100065.78;2198659;40;20047;-79
2021/08/11 00:52:47;;;;;;;6.03;3.00;;;;;;;19.17;67.61;100066.38;2195932;40;20042;-81
2021/08/11 00:54:20;;;;;;;6.85;3.67;;;;;;;19.16;67.81;100067.41;2196522;40;20054;-81
2021/08/11 00:55:52;;;;;;;6.97;3.40;;;;;;;19.14;68.05;100071.34;2198178;40;20027;-80
2021/08/11 00:57:26;;;;;;;6.43;3.67;;;;;;;19.12;68.11;100068.84;2202119;40;20451;-81
2021/08/11 00:58:59;;;;;;;7.28;3.08;;;;;;;19.14;67.80;100069.50;2197006;40;20035;-80
2021/08/11 01:00:33;;;;;;;7.57;3.28;;;;;;;19.17;67.88;100071.81;2200749;40;20043;-79
2021/08/11 01:02:07;;;;;;;5.63;3.53;;;;;;;19.20;67.82;100064.28;2198091;40;20081;-79
2021/08/11 01:03:39;;;;;;;8.00;4.07;;;;;;;19.18;67.78;100068.03;2194299;40;20035;-78
2021/08/11 01:05:13;;;;;;;5.75;3.30;;;;;;;19.18;68.09;100062.63;2197917;40;20046;-79
2021/08/11 01:06:45;;;;;;;6.07;3.20;;;;;;;19.23;67.96;100067.44;2197229;40;20035;-80
2021/08/11 01:08:18;;;;;;;6.30;2.95;;;;;;;19.28;67.81;100066.81;2196496;40;20027;-83
2021/08/11 01:09:51;;;;;;;12.00;3.20;;;;;;;19.32;67.44;100063.50;2192747;40;20459;-78
2021/08/11 01:11:24;;;;;;;6.28;3.38;;;;;;;19.39;67.44;100062.72;2196847;40;20474;-78
2021/08/11 01:12:56;;;;;;;5.30;2.95;;;;;;;19.44;67.19;100057.50;2190898;40;20031;-78
2021/08/11 01:14:29;;;;;;;6.15;3.25;;;;;;;19.41;66.97;100049.81;2195390;40;20035;-79
2021/08/11 01:16:04;;;;;;;5.90;3.00;;;;;;;19.44;67.13;100058.38;2196426;40;20110;-79
2021/08/11 01:17:36;;;;;;;7.47;3.88;;;;;;;19.44;67.35;100060.22;2191795;40;20028;-79
2021/08/11 01:19:09;;;;;;;7.80;3.58;;;;;;;19.39;67.33;100054.59;2198232;40;20047;-79
2021/08/11 01:20:48;;;;;;;6.38;3.08;;;;;;;19.36;67.62;100058.56;2201340;40;20042;-79
2021/08/11 01:22:26;;;;;;;7.97;3.45;;;;;;;19.35;67.59;100064.16;2202823;40;20384;-80
2021/08/11 01:24:06;;;;;;;8.85;3.92;;;;;;;19.36;67.77;100052.28;2205609;40;20010;-80
2021/08/11 01:25:42;;;;;;;6.35;3.72;;;;;;;19.32;68.01;100057.28;2199230;40;20036;-83
2021/08/11 01:27:41;;;;;;;5.95;3.20;;;;;;;19.31;67.90;100056.44;2199747;40;20236;-79
2021/08/11 01:29:15;;;;;;;6.50;3.40;;;;;;;19.30;67.94;100048.50;2201993;40;20039;-80
2021/08/11 01:30:54;;;;;;;9.88;3.88;;;;;;;19.28;67.73;100046.00;2195818;40;20027;-81
2021/08/11 01:32:46;;;;;;;7.90;4.40;;;;;;;19.21;67.41;100052.41;2196375;40;20168;-80
2021/08/11 01:34:24;;;;;;;7.75;4.13;;;;;;;19.04;67.83;100060.03;2196689;40;20046;-82
2021/08/11 01:36:03;;;;;;;7.97;4.68;;;;;;;18.94;68.39;100055.00;2192399;40;20050;-80
2021/08/11 01:37:37;;;;;;;10.00;4.72;;;;;;;18.84;68.54;100056.16;2190972;40;20103;-78
2021/08/11 01:39:16;;;;;;;12.15;4.82;;;;;;;18.80;68.87;100060.28;2194609;40;20038;-80
2021/08/11 01:40:55;;;;;;;11.55;4.47;;;;;;;18.76;68.84;100058.19;2190601;40;20307;-81
2021/08/11 01:42:30;;;;;;;9.77;4.18;;;;;;;18.74;69.20;100061.09;2192342;40;20042;-78
2021/08/11 01:44:04;;;;;;;7.93;4.57;;;;;;;18.76;68.77;100060.88;2190289;40;20047;-79
2021/08/11 01:45:42;;;;;;;7.70;3.58;;;;;;;18.81;68.83;100061.97;2191642;40;20580;-80
2021/08/11 01:47:17;;;;;;;8.70;4.35;;;;;;;18.83;68.85;100054.47;2195970;40;20027;-79
2021/08/11 01:48:51;;;;;;;8.27;4.30;;;;;;;18.88;68.76;100059.31;2196368;40;20038;-79
2021/08/11 01:50:26;;;;;;;10.23;4.68;;;;;;;18.88;68.52;100058.47;2196193;40;20516;-79
2021/08/11 01:51:58;;;;;;;10.00;4.50;;;;;;;18.89;68.53;100062.88;2196637;40;20126;-79
2021/08/11 01:53:32;;;;;;;8.30;3.67;;;;;;;18.91;68.43;100061.63;2196290;40;20042;-78
2021/08/11 01:55:05;;;;;;;9.75;4.80;;;;;;;18.92;68.55;100059.72;2196545;40;20064;-78
2021/08/11 01:56:41;;;;;;;8.77;5.22;;;;;;;18.90;68.88;100059.09;2190422;40;20034;-78
2021/08/11 01:58:13;;;;;;;8.20;4.45;;;;;;;18.85;68.57;100052.41;2190267;40;20087;-80
2021/08/11 01:59:48;;;;;;;7.30;4.55;;;;;;;18.85;68.73;100062.41;2196232;40;20035;-79
2021/08/11 02:01:20;;;;;;;9.13;4.40;;;;;;;18.82;68.79;100065.53;2196416;40;20038;-78
2021/08/11 02:02:53;;;;;;;6.72;3.88;;;;;;;18.82;68.94;100063.63;2195888;40;20038;-78
2021/08/11 02:04:26;;;;;;;7.85;4.13;;;;;;;18.82;69.11;100069.06;2196372;40;20043;-79
2021/08/11 02:05:59;;;;;;;6.72;3.58;;;;;;;18.80;69.04;100073.81;2199663;40;20033;-79
2021/08/11 02:07:31;;;;;;;11.25;4.57;;;;;;;18.79;69.21;100074.03;2202456;40;20038;-79
2021/08/11 02:09:04;;;;;;;10.60;4.75;;;;;;;18.77;69.35;100070.69;2202330;40;20419;-78
2021/08/11 02:10:36;;;;;;;7.88;4.40;;;;;;;18.76;69.27;100071.72;2202211;40;20042;-78
2021/08/11 02:12:10;;;;;;;9.38;4.40;;;;;;;18.72;69.29;100073.97;2190241;40;20040;-79
2021/08/11 02:13:42;;;;;;;11.05;4.32;;;;;;;18.69;69.32;100079.81;2190450;40;20419;-79
2021/08/11 02:15:14;;;;;;;10.45;4.57;;;;;;;18.64;69.45;100077.69;2196033;40;20026;-80
2021/08/11 02:16:46;;;;;;;6.30;3.60;;;;;;;18.62;69.70;100078.91;2196568;40;20043;-79
2021/08/11 02:18:18;;;;;;;6.57;3.53;;;;;;;18.60;69.61;100079.13;2196114;40;20042;-78
2021/08/11 02:19:49;;;;;;;7.93;3.88;;;;;;;18.58;69.93;100070.34;2196414;40;20473;-78
2021/08/11 02:21:23;;;;;;;8.52;4.60;;;;;;;18.55;70.15;100065.34;2195487;40;20039;-79
2021/08/11 02:22:54;;;;;;;7.32;3.65;;;;;;;18.52;70.19;100069.25;2189931;40;20331;-80
2021/08/11 02:24:26;;;;;;;8.77;4.15;;;;;;;18.51;70.14;100067.63;2191731;40;20317;-77
2021/08/11 02:26:09;;;;;;;9.27;3.70;;;;;;;18.51;70.22;100072.16;2195251;40;20362;-78
2021/08/11 02:27:52;;;;;;;8.35;4.15;;;;;;;18.50;69.95;100074.06;2194827;40;20046;-78
2021/08/11 02:29:40;;;;;;;6.90;4.25;;;;;;;18.50;70.00;100065.94;2199882;40;20411;-79
2021/08/11 02:31:20;;;;;;;9.07;4.30;;;;;;;18.49;69.86;100064.25;2194389;40;20035;-78
2021/08/11 02:32:59;;;;;;;7.15;3.78;;;;;;;18.48;70.13;100068.00;2195334;40;20058;-79
2021/08/11 02:34:41;;;;;;;8.38;4.20;;;;;;;18.49;69.99;100058.84;2194684;40;20039;-78
2021/08/11 02:36:22;;;;;;;8.23;3.90;;;;;;;18.48;70.26;100065.28;2190174;40;20370;-78
2021/08/11 02:38:00;;;;;;;6.15;3.72;;;;;;;18.45;70.40;100062.97;2191035;40;20046;-78
2021/08/11 02:39:40;;;;;;;8.65;3.63;;;;;;;18.45;70.32;100062.97;2189278;40;20043;-78
2021/08/11 02:41:14;;;;;;;8.13;3.70;;;;;;;18.45;70.36;100062.97;2193039;40;20042;-78
2021/08/11 02:42:52;;;;;;;9.85;4.25;;;;;;;18.47;70.29;100068.16;2195331;40;20097;-78
2021/08/11 02:44:27;;;;;;;6.60;3.85;;;;;;;18.47;70.35;100063.63;2194320;40;20034;-78
2021/08/11 02:46:04;;;;;;;10.18;4.43;;;;;;;18.47;70.23;100074.44;2195341;40;20039;-78
2021/08/11 02:47:38;;;;;;;7.20;4.07;;;;;;;18.42;70.35;100068.75;2195941;40;20046;-78
2021/08/11 02:49:14;;;;;;;7.47;4.15;;;;;;;18.40;70.34;100070.84;2195850;40;20323;-78
2021/08/11 02:50:47;;;;;;;9.95;4.55;;;;;;;18.29;71.02;100071.38;2194369;40;20374;-78
2021/08/11 02:52:20;;;;;;;8.48;4.45;;;;;;;18.21;71.27;100069.63;2195320;40;20031;-78
2021/08/11 02:53:54;;;;;;;7.85;4.28;;;;;;;18.21;71.47;100078.59;2195331;40;20031;-78
2021/08/11 02:55:26;;;;;;;8.63;4.28;;;;;;;18.19;71.39;100075.25;2195364;40;20051;-78
2021/08/11 02:57:01;;;;;;;7.88;4.43;;;;;;;18.15;71.41;100068.53;2195143;40;20050;-78
2021/08/11 02:58:33;;;;;;;7.82;4.75;;;;;;;18.12;71.83;100068.09;2193495;40;20034;-78
2021/08/11 03:00:07;;;;;;;11.52;4.68;;;;;;;18.13;71.79;100067.91;2198193;40;20039;-78
2021/08/11 03:01:39;;;;;;;8.40;4.28;;;;;;;18.11;71.86;100069.13;2189070;40;20043;-78
2021/08/11 03:03:11;;;;;;;8.63;4.25;;;;;;;18.11;71.68;100069.97;2193823;40;20031;-78
2021/08/11 03:04:43;;;;;;;7.22;3.45;;;;;;;18.11;71.81;100075.38;2195549;40;20043;-79
2021/08/11 03:06:16;;;;;;;8.00;4.20;;;;;;;18.08;71.84;100071.19;2195684;40;20042;-78
2021/08/11 03:07:48;;;;;;;8.50;4.93;;;;;;;18.08;71.81;100071.19;2195282;40;20035;-78
2021/08/11 03:09:22;;;;;;;10.20;5.32;;;;;;;18.08;71.77;100067.66;2195209;40;20438;-78
2021/08/11 03:10:54;;;;;;;9.48;4.35;;;;;;;18.01;72.17;100070.28;2194058;40;20039;-79
2021/08/11 03:12:26;;;;;;;6.78;4.18;;;;;;;17.96;72.18;100075.44;2195031;40;20035;-78
2021/08/11 03:13:57;;;;;;;7.32;4.15;;;;;;;17.96;72.27;100070.03;2193256;40;20038;-78
2021/08/11 03:15:30;;;;;;;7.75;4.10;;;;;;;17.99;72.15;100066.09;2195138;40;20133;-78
2021/08/11 03:17:02;;;;;;;8.20;4.55;;;;;;;18.02;71.54;100073.84;2194351;40;20045;-78
2021/08/11 03:18:34;;;;;;;9.43;5.22;;;;;;;18.02;71.69;100073.84;2196426;40;20027;-78
2021/08/11 03:20:08;;;;;;;10.02;4.68;;;;;;;18.01;71.68;100072.16;2193017;40;20034;-78
2021/08/11 03:21:40;;;;;;;6.97;4.28;;;;;;;18.00;72.05;100079.41;2197152;40;20410;-78
2021/08/11 03:23:14;;;;;;;8.35;4.13;;;;;;;17.99;71.75;100079.63;2191878;40;20336;-78
2021/08/11 03:24:47;;;;;;;10.50;3.83;;;;;;;17.98;71.70;100080.66;2191923;40;20039;-79
2021/08/11 03:26:19;;;;;;;6.97;4.22;;;;;;;17.97;71.78;100081.69;2192078;40;20113;-78
2021/08/11 03:27:51;;;;;;;9.45;4.28;;;;;;;17.96;71.98;100086.25;2195229;40;20058;-79
2021/08/11 03:29:23;;;;;;;8.57;4.22;;;;;;;17.95;71.82;100087.25;2194131;40;20035;-79
2021/08/11 03:30:54;;;;;;;8.32;4.00;;;;;;;17.96;71.87;100093.50;2195036;40;20043;-78
2021/08/11 03:32:26;;;;;;;6.63;4.13;;;;;;;17.97;71.76;100095.19;2190962;40;20062;-79
2021/08/11 03:33:59;;;;;;;10.07;4.05;;;;;;;17.96;71.76;100093.50;2192799;40;20055;-79
2021/08/11 03:35:31;;;;;;;9.95;4.68;;;;;;;17.95;71.95;100091.84;2194338;40;20034;-78
2021/08/11 03:37:05;;;;;;;5.85;3.88;;;;;;;17.96;71.65;100088.06;2194737;40;20039;-79
2021/08/11 03:38:37;;;;;;;7.32;4.13;;;;;;;17.94;71.97;100082.88;2195095;40;20404;-78
2021/08/11 03:40:11;;;;;;;6.28;3.90;;;;;;;17.92;71.91;100084.94;2195021;40;20030;-79
2021/08/11 03:41:43;;;;;;;9.00;4.28;;;;;;;17.92;71.90;100085.78;2193714;40;20043;-78
2021/08/11 03:43:15;;;;;;;7.72;3.95;;;;;;;17.93;71.83;100087.47;2195203;40;20035;-79
2021/08/11 03:44:46;;;;;;;8.52;4.25;;;;;;;17.95;71.52;100086.44;2194493;40;20067;-79
2021/08/11 03:46:18;;;;;;;7.90;4.53;;;;;;;17.95;71.71;100089.13;2192409;40;20040;-78
2021/08/11 03:47:50;;;;;;;8.70;3.60;;;;;;;17.92;71.78;100088.47;2191955;40;20034;-78
2021/08/11 03:49:22;;;;;;;6.70;3.75;;;;;;;17.95;71.69;100089.13;2194224;40;20043;-78
2021/08/11 03:50:54;;;;;;;6.90;4.30;;;;;;;17.96;71.77;100094.38;2195493;40;20050;-80
2021/08/11 03:52:26;;;;;;;10.30;4.32;;;;;;;17.95;71.65;100095.38;2195951;40;20373;-80
2021/08/11 03:53:57;;;;;;;11.32;4.93;;;;;;;17.93;71.98;100092.88;2196157;40;20043;-80
2021/08/11 03:55:32;;;;;;;11.32;5.32;;;;;;;17.91;72.09;100094.06;2195979;40;20038;-80
2021/08/11 03:57:04;;;;;;;7.03;4.43;;;;;;;17.84;72.06;100093.16;2195930;40;20035;-82
2021/08/11 03:58:36;;;;;;;10.88;4.60;;;;;;;17.82;72.24;100096.06;2195529;40;20035;-80
2021/08/11 04:00:09;;;;;;;9.30;4.72;;;;;;;17.78;72.18;100094.75;2197013;40;20299;-82
2021/08/11 04:01:41;;;;;;;7.97;4.07;;;;;;;17.78;72.48;100097.47;2196899;40;20042;-80
2021/08/11 04:03:13;;;;;;;7.07;3.95;;;;;;;17.80;72.58;100097.28;2196841;40;20106;-80
2021/08/11 04:04:44;;;;;;;9.75;3.70;;;;;;;17.81;72.37;100094.38;2196606;40;20031;-80
2021/08/11 04:06:16;;;;;;;7.60;4.15;;;;;;;17.80;72.37;100098.13;2195885;40;20035;-80
2021/08/11 04:07:48;;;;;;;6.35;3.78;;;;;;;17.80;72.38;100097.28;2196806;40;20055;-80
2021/08/11 04:09:20;;;;;;;8.40;4.50;;;;;;;17.80;72.83;100103.53;2196874;40;20043;-82
2021/08/11 04:10:53;;;;;;;7.95;4.45;;;;;;;17.80;72.47;100102.69;2201408;40;20152;-80
2021/08/11 04:12:25;;;;;;;7.43;4.15;;;;;;;17.81;72.31;100102.50;2190790;40;20315;-81
2021/08/11 04:13:57;;;;;;;7.97;4.30;;;;;;;17.81;72.68;100101.66;2191556;40;20403;-80
2021/08/11 04:15:28;;;;;;;9.90;4.47;;;;;;;17.81;72.65;100104.34;2197019;40;20046;-80
2021/08/11 04:17:00;;;;;;;8.05;4.50;;;;;;;17.77;72.68;100093.94;2196453;40;20038;-79
2021/08/11 04:18:32;;;;;;;10.10;4.53;;;;;;;17.77;72.88;100098.50;2193222;40;20042;-78
2021/08/11 04:20:06;;;;;;;9.27;4.88;;;;;;;17.71;72.86;100089.28;2192417;40;20055;-79
2021/08/11 04:21:37;;;;;;;8.43;5.10;;;;;;;17.70;73.14;100086.78;2195455;40;20055;-80
2021/08/11 04:23:09;;;;;;;10.38;5.47;;;;;;;17.61;73.39;100092.28;2194073;40;20042;-79
2021/08/11 04:24:41;;;;;;;7.53;3.97;;;;;;;17.61;73.51;100095.00;2193411;40;20055;-80
2021/08/11 04:26:15;;;;;;;10.20;4.45;;;;;;;17.68;73.24;100096.94;2191540;40;20066;-79
2021/08/11 04:27:47;;;;;;;8.27;4.80;;;;;;;17.72;72.82;100100.94;2194756;40;20137;-79
2021/08/11 04:29:18;;;;;;;9.10;4.40;;;;;;;17.76;73.06;100102.22;2197701;40;20031;-80
2021/08/11 04:30:50;;;;;;;8.85;4.38;;;;;;;17.78;72.96;100100.16;2195063;40;20046;-79
2021/08/11 04:32:22;;;;;;;8.18;4.55;;;;;;;17.75;72.89;100090.59;2197986;40;20190;-79
2021/08/11 04:33:54;;;;;;;10.13;5.13;;;;;;;17.73;72.91;100095.34;2194815;40;20043;-79
2021/08/11 04:35:26;;;;;;;10.00;5.28;;;;;;;17.74;73.06;100097.00;2197571;40;20037;-79
2021/08/11 04:36:58;;;;;;;10.48;5.30;;;;;;;17.76;72.72;100092.25;2196202;40;20047;-79
2021/08/11 04:38:30;;;;;;;14.52;5.53;;;;;;;17.73;73.08;100102.63;2193401;40;20061;-79
2021/08/11 04:40:01;;;;;;;6.25;3.90;;;;;;;17.74;73.10;100101.59;2195880;40;20050;-79
2021/08/11 04:41:35;;;;;;;8.88;4.03;;;;;;;17.78;72.98;100108.28;2193232;40;20418;-79
2021/08/11 04:43:06;;;;;;;6.03;3.83;;;;;;;17.80;72.55;100108.94;2193401;40;20050;-79
2021/08/11 04:44:38;;;;;;;8.35;4.50;;;;;;;17.80;72.81;100113.50;2196838;40;20054;-79
2021/08/11 04:46:10;;;;;;;10.77;3.85;;;;;;;17.76;72.89;100110.31;2198463;40;20045;-79
2021/08/11 04:47:42;;;;;;;8.05;4.10;;;;;;;17.78;72.96;100114.53;2192695;40;20035;-79
2021/08/11 04:49:14;;;;;;;8.70;3.95;;;;;;;17.78;72.86;100110.97;2192442;40;20050;-79
2021/08/11 04:50:45;;;;;;;8.13;5.03;;;;;;;17.78;73.05;100116.38;2193483;40;20221;-79
2021/08/11 04:52:17;;;;;;;6.20;4.00;;;;;;;17.79;72.85;100112.66;2196065;40;20031;-78
2021/08/11 04:53:49;;;;;;;9.85;4.03;;;;;;;17.80;72.83;100110.81;2192065;40;20047;-79
2021/08/11 04:55:21;;;;;;;8.98;4.63;;;;;;;17.77;73.08;100114.72;2192903;40;20055;-79
2021/08/11 04:56:54;;;;;;;11.13;4.38;;;;;;;17.68;73.19;100114.00;2194413;40;20116;-79
2021/08/11 04:58:26;;;;;;;8.40;4.43;;;;;;;17.66;73.23;100110.66;2197599;40;20124;-79
2021/08/11 04:59:58;;;;;;;7.70;4.35;;;;;;;17.66;73.38;100107.13;2194670;40;20330;-79
2021/08/11 05:01:30;;;;;;;9.27;4.45;;;;;;;17.70;73.26;100116.50;2195771;40;20067;-79
2021/08/11 05:03:02;;;;;;;7.57;3.88;;;;;;;17.73;72.96;100116.13;2194248;40;20035;-78
2021/08/11 05:04:34;;;;;;;8.13;3.70;;;;;;;17.75;72.96;100111.38;2193973;40;20027;-80
2021/08/11 05:06:07;;;;;;;13.32;5.75;;;;;;;17.74;73.11;100121.34;2196479;40;20050;-79
2021/08/11 05:07:39;;;;;;;11.52;5.05;;;;;;;17.73;73.35;100121.53;2194769;40;20359;-78
2021/08/11 05:09:11;;;;;;;9.50;4.88;;;;;;;17.77;73.05;100117.41;2201620;40;20031;-78
2021/08/11 05:10:43;;;;;;;12.55;5.28;;;;;;;17.81;72.97;100116.03;2202213;40;20027;-80
2021/08/11 05:12:16;;;;;;;12.82;4.25;;;;;;;17.85;72.81;100121.88;2197100;40;20074;-80
2021/08/11 05:13:48;;;;;;;11.15;4.90;;;;;;;17.85;72.69;100122.72;2196144;40;20047;-80
2021/08/11 05:15:20;;;;;;;15.77;5.15;;;;;;;17.87;72.83;100120.66;2197342;40;20219;-79
2021/08/11 05:16:51;;;;;;;9.75;5.10;;;;;;;17.93;72.52;100119.06;2195939;40;20050;-79
2021/08/11 05:18:24;;;;;;;13.90;5.38;;;;;;;17.95;72.38;100124.28;2196911;40;20039;-78
2021/08/11 05:19:55;;;;;;;10.93;5.07;;;;;;;17.98;72.33;100127.47;2190207;40;20378;-78
2021/08/11 05:21:28;;;;;;;12.70;4.65;;;;;;;18.04;71.92;100131.28;2190312;40;20093;-80
2021/08/11 05:23:00;;;;;;;13.20;4.85;;;;;;;18.06;72.19;100126.50;2190322;40;20057;-79
2021/08/11 05:24:31;;;;;;;12.40;5.13;;;;;;;18.09;72.08;100128.81;2190299;40;20040;-80
2021/08/11 05:26:03;;;;;;;10.57;4.70;;;;;;;18.12;71.75;100127.59;2194670;40;20039;-80
2021/08/11 05:27:37;;;;;;;14.50;5.30;;;;;;;18.13;71.82;100123.88;2196745;40;20050;-80
2021/08/11 05:29:09;;;;;;;16.30;5.38;;;;;;;18.12;71.95;100128.44;2196653;40;20098;-81
2021/08/11 05:30:41;;;;;;;11.85;4.90;;;;;;;18.10;72.12;100125.09;2196622;40;20039;-82
2021/08/11 05:32:14;;;;;;;7.90;4.10;;;;;;;18.11;71.99;100132.19;2194679;40;20469;-80
2021/08/11 05:33:45;;;;;;;15.98;5.25;;;;;;;18.12;71.93;100133.88;2194978;40;20070;-79
2021/08/11 05:35:17;;;;;;;14.80;5.18;;;;;;;18.08;72.21;100127.16;2195911;40;20051;-79
2021/08/11 05:36:49;;;;;;;11.35;4.43;;;;;;;18.10;72.15;100130.50;2196729;40;20070;-80
2021/08/11 05:38:24;;;;;;;10.30;4.05;;;;;;;18.16;71.83;100137.03;2196415;40;20043;-81
2021/08/11 05:39:55;;;;;;;11.25;4.05;;;;;;;18.18;71.86;100133.09;2196530;40;20410;-83
2021/08/11 05:41:27;;;;;;;15.13;4.20;;;;;;;18.22;71.50;100128.97;2196677;40;20042;-80
2021/08/11 05:43:00;;;;;;;11.68;5.45;;;;;;;18.31;71.35;100136.97;2196551;40;20039;-80
2021/08/11 05:44:32;;;;;;;14.95;4.90;;;;;;;18.35;71.27;100132.81;2196021;40;20489;-78
2021/08/11 05:46:06;;;;;;;15.13;5.07;;;;;;;18.39;71.31;100136.81;2192985;40;20024;-79
2021/08/11 05:47:38;;;;;;;13.05;5.28;;;;;;;18.45;70.91;100132.50;2195260;40;20051;-80
2021/08/11 05:49:10;;;;;;;11.13;4.35;;;;;;;18.48;70.88;100142.94;2195445;40;20054;-80
2021/08/11 05:50:42;;;;;;;13.32;4.72;;;;;;;18.51;70.93;100142.53;2200824;40;20118;-80
2021/08/11 05:52:15;;;;;;;16.33;5.57;;;;;;;18.52;70.91;100138.81;2193784;40;20433;-80
2021/08/11 05:53:47;;;;;;;11.07;4.97;;;;;;;18.54;70.61;100145.69;2200881;40;20079;-80
2021/08/11 05:55:18;;;;;;;13.00;5.70;;;;;;;18.58;70.33;100142.63;2194408;40;20140;-80
2021/08/11 05:56:50;;;;;;;15.65;5.13;;;;;;;18.60;70.20;100140.56;2191815;40;20498;-81
2021/08/11 05:58:23;;;;;;;31.70;19.35;;;;;;;18.63;70.24;100141.00;2194683;40;20156;-80
2021/08/11 05:59:55;;;;;;;19.90;11.00;;;;;;;18.62;70.43;100138.47;2198024;40;20043;-79
2021/08/11 06:01:27;;;;;;;12.85;7.25;;;;;;;18.66;70.17;100145.19;2194332;40;20043;-81
2021/08/11 06:02:59;;;;;;;16.73;6.18;;;;;;;18.65;69.87;100154.31;2196146;40;20127;-80
2021/08/11 06:04:31;;;;;;;14.98;5.55;;;;;;;18.59;70.54;100144.28;2194518;40;20461;-80
2021/08/11 06:06:03;;;;;;;22.40;5.88;;;;;;;18.57;70.27;100147.16;2196034;40;20311;-80
2021/08/11 06:07:34;;;;;;;13.30;5.82;;;;;;;18.55;70.50;100149.25;2195355;40;20411;-80
2021/08/11 06:09:06;;;;;;;12.32;5.45;;;;;;;18.50;70.46;100149.84;2196500;40;20035;-80
2021/08/11 06:10:39;;;;;;;12.15;4.90;;;;;;;18.53;70.40;100154.03;2197637;40;20046;-80
2021/08/11 06:12:10;;;;;;;10.10;4.80;;;;;;;18.59;70.23;100153.22;2196369;40;20162;-80
2021/08/11 06:13:44;;;;;;;23.05;7.85;;;;;;;18.63;70.11;100146.41;2196825;40;20043;-80
2021/08/11 06:15:15;;;;;;;13.85;6.28;;;;;;;18.54;70.27;100150.28;2192847;40;20403;-78
2021/08/11 06:16:47;;;;;;;17.33;5.40;;;;;;;18.53;70.51;100146.72;2192340;40;20062;-79
2021/08/11 06:18:19;;;;;;;12.68;5.22;;;;;;;18.60;70.34;100146.78;2196288;40;20049;-80
2021/08/11 06:19:51;;;;;;;12.13;5.13;;;;;;;18.66;70.13;100148.69;2197131;40;20043;-79
2021/08/11 06:32:57;;;;;;;20.80;6.05;;;;;;;19.24;68.77;100158.53;2202960;40;20213;-86
2021/08/11 06:34:29;;;;;;;20.50;6.45;;;;;;;19.28;68.55;100153.53;2202364;40;20030;-87
2021/08/11 06:36:01;;;;;;;12.73;5.13;;;;;;;19.33;68.35;100153.81;2197082;40;20035;-88
2021/08/11 06:37:32;;;;;;;14.80;5.18;;;;;;;19.33;68.21;100151.09;2189158;40;20028;-90
2021/08/11 06:39:04;;;;;;;13.20;4.78;;;;;;;19.36;68.02;100145.28;2185266;40;20322;-88
2021/08/11 06:40:36;;;;;;;17.75;5.20;;;;;;;19.47;68.10;100147.41;2195924;40;20082;-86
2021/08/11 06:42:08;;;;;;;15.23;4.90;;;;;;;19.49;67.90;100147.22;2195365;40;20028;-87
2021/08/11 06:43:40;;;;;;;14.57;5.28;;;;;;;19.51;67.82;100147.00;2197680;40;20079;-87
2021/08/11 06:45:13;;;;;;;12.88;4.60;;;;;;;19.58;67.49;100156.84;2184844;40;20056;-86
2021/08/11 06:46:45;;;;;;;13.02;4.55;;;;;;;19.60;67.22;100145.78;2197142;40;20019;-89
2021/08/11 06:48:18;;;;;;;7.57;4.15;;;;;;;19.64;66.92;100147.06;2178955;41;20040;-88
2021/08/11 06:49:50;;;;;;;10.00;5.15;;;;;;;19.71;67.16;100158.78;2196709;40;20019;-86
2021/08/11 06:51:22;;;;;;;14.73;5.53;;;;;;;19.79;66.91;100155.03;2184963;40;20043;-89
2021/08/11 06:52:54;;;;;;;13.90;5.30;;;;;;;19.87;66.87;100154.06;2184970;40;20036;-87
2021/08/11 06:54:25;;;;;;;22.08;6.05;;;;;;;19.87;66.50;100141.34;2173307;41;20684;-90
2021/08/11 06:55:57;;;;;;;24.95;6.20;;;;;;;19.74;66.50;100147.50;2173510;41;20032;-88
2021/08/11 06:57:29;;;;;;;18.52;6.38;;;;;;;19.68;66.72;100137.47;2167275;41;20041;-88
2021/08/11 06:59:01;;;;;;;19.27;7.43;;;;;;;19.71;66.86;100149.78;2160955;41;20350;-84
2021/08/11 07:00:33;;;;;;;13.25;5.38;;;;;;;19.66;66.74;100147.69;2160888;41;20607;-86
2021/08/11 07:02:04;;;;;;;10.65;4.90;;;;;;;19.70;66.80;100138.13;2138094;41;20028;-87
2021/08/11 07:03:38;;;;;;;10.50;4.80;;;;;;;19.82;66.42;100142.97;2168356;41;20024;-86
2021/08/11 07:05:11;;;;;;;9.43;5.10;;;;;;;19.92;65.90;100138.03;2193693;40;20161;-87
2021/08/11 07:06:42;;;;;;;12.77;4.45;;;;;;;19.98;65.93;100137.19;2197672;40;20027;-85
2021/08/11 07:08:14;;;;;;;12.05;4.95;;;;;;;20.08;65.49;100140.34;2178795;40;20036;-86
2021/08/11 07:09:46;;;;;;;10.05;4.00;;;;;;;20.17;65.30;100142.88;2196842;40;20035;-85
2021/08/11 07:11:18;;;;;;;8.02;4.20;;;;;;;20.26;64.97;100130.78;2197605;40;20031;-87
2021/08/11 07:12:50;;;;;;;11.75;4.68;;;;;;;20.34;64.84;100140.63;2203653;40;20037;-86
2021/08/11 07:14:22;;;;;;;12.73;4.88;;;;;;;20.36;64.31;100136.66;2203778;40;20030;-87
2021/08/11 07:15:54;;;;;;;9.18;4.22;;;;;;;20.39;64.40;100133.53;2197533;40;20027;-85
2021/08/11 07:17:25;;;;;;;6.53;4.10;;;;;;;20.49;63.96;100137.72;2195407;40;20123;-85
2021/08/11 07:18:59;;;;;;;13.05;5.50;;;;;;;20.60;63.80;100136.25;2196021;40;20031;-86
2021/08/11 07:20:31;;;;;;;9.93;4.13;;;;;;;20.71;63.58;100138.34;2197534;40;20036;-84
2021/08/11 07:22:04;;;;;;;8.55;4.90;;;;;;;20.85;63.52;100133.75;2196568;40;20023;-87